sensor_id;sensor_type;location;lat;lon;timestamp;P1;durP1;ratioP1;P2;durP2;ratioP2
75584;SDS011;64162;53.508;10.476;2023-11-22T00:00:51;5.65;;;2.00;;
75584;SDS011;64162;53.508;10.476;2023-11-22T00:05:44;2.67;;;1.77;;
75584;SDS011;64162;53.508;10.476;2023-11-22T00:08:10;4.18;;;2.03;;
75584;SDS011;64162;53.508;10.476;2023-11-22T00:10:37;4.22;;;1.80;;
75584;SDS011;64162;53.508;10.476;2023-11-22T00:13:04;3.40;;;1.88;;
75584;SDS011;64162;53.508;10.476;2023-11-22T00:15:31;2.63;;;1.80;;
75584;SDS011;64162;53.508;10.476;2023-11-22T00:17:58;2.72;;;1.98;;
75584;SDS011;64162;53.508;10.476;2023-11-22T00:20:29;3.33;;;1.63;;
75584;SDS011;64162;53.508;10.476;2023-11-22T00:22:56;3.65;;;1.92;;
75584;SDS011;64162;53.508;10.476;2023-11-22T00:27:50;3.78;;;1.77;;
75584;SDS011;64162;53.508;10.476;2023-11-22T00:32:43;3.47;;;1.88;;
75584;SDS011;64162;53.508;10.476;2023-11-22T00:35:10;2.88;;;2.00;;
75584;SDS011;64162;53.508;10.476;2023-11-22T00:37:37;3.65;;;2.13;;
75584;SDS011;64162;53.508;10.476;2023-11-22T00:40:03;3.53;;;2.15;;
75584;SDS011;64162;53.508;10.476;2023-11-22T00:45:06;4.47;;;2.35;;
75584;SDS011;64162;53.508;10.476;2023-11-22T00:47:33;3.30;;;2.25;;
75584;SDS011;64162;53.508;10.476;2023-11-22T00:50:00;4.55;;;2.47;;
75584;SDS011;64162;53.508;10.476;2023-11-22T00:52:28;3.75;;;2.03;;
75584;SDS011;64162;53.508;10.476;2023-11-22T00:54:55;4.70;;;2.08;;
75584;SDS011;64162;53.508;10.476;2023-11-22T00:57:21;5.15;;;2.35;;
75584;SDS011;64162;53.508;10.476;2023-11-22T00:59:48;4.80;;;2.45;;
75584;SDS011;64162;53.508;10.476;2023-11-22T01:02:14;3.60;;;2.28;;
75584;SDS011;64162;53.508;10.476;2023-11-22T01:04:41;4.85;;;2.28;;
75584;SDS011;64162;53.508;10.476;2023-11-22T01:07:08;5.05;;;2.30;;
75584;SDS011;64162;53.508;10.476;2023-11-22T01:09:34;4.25;;;1.95;;
75584;SDS011;64162;53.508;10.476;2023-11-22T01:12:01;3.35;;;2.10;;
75584;SDS011;64162;53.508;10.476;2023-11-22T01:14:28;4.30;;;2.55;;
75584;SDS011;64162;53.508;10.476;2023-11-22T01:16:55;5.07;;;2.58;;
75584;SDS011;64162;53.508;10.476;2023-11-22T01:19:22;4.00;;;2.20;;
75584;SDS011;64162;53.508;10.476;2023-11-22T01:21:49;6.32;;;3.15;;
75584;SDS011;64162;53.508;10.476;2023-11-22T01:24:16;3.85;;;2.40;;
75584;SDS011;64162;53.508;10.476;2023-11-22T01:26:42;4.13;;;2.60;;
75584;SDS011;64162;53.508;10.476;2023-11-22T01:29:09;5.97;;;2.95;;
75584;SDS011;64162;53.508;10.476;2023-11-22T01:31:38;5.38;;;2.85;;
75584;SDS011;64162;53.508;10.476;2023-11-22T01:34:05;7.68;;;2.80;;
75584;SDS011;64162;53.508;10.476;2023-11-22T01:36:33;4.50;;;2.60;;
75584;SDS011;64162;53.508;10.476;2023-11-22T01:39:00;4.30;;;2.25;;
75584;SDS011;64162;53.508;10.476;2023-11-22T01:41:28;4.43;;;2.53;;
75584;SDS011;64162;53.508;10.476;2023-11-22T01:43:56;4.88;;;2.50;;
75584;SDS011;64162;53.508;10.476;2023-11-22T01:46:24;6.88;;;2.80;;
75584;SDS011;64162;53.508;10.476;2023-11-22T01:48:52;5.43;;;2.35;;
75584;SDS011;64162;53.508;10.476;2023-11-22T01:51:20;5.32;;;2.50;;
75584;SDS011;64162;53.508;10.476;2023-11-22T01:53:48;4.20;;;2.33;;
75584;SDS011;64162;53.508;10.476;2023-11-22T01:56:16;4.15;;;2.03;;
75584;SDS011;64162;53.508;10.476;2023-11-22T02:01:10;4.40;;;2.20;;
75584;SDS011;64162;53.508;10.476;2023-11-22T02:03:38;4.07;;;2.35;;
75584;SDS011;64162;53.508;10.476;2023-11-22T02:06:06;3.58;;;2.08;;
75584;SDS011;64162;53.508;10.476;2023-11-22T02:08:33;5.18;;;2.28;;
75584;SDS011;64162;53.508;10.476;2023-11-22T02:11:01;4.28;;;2.47;;
75584;SDS011;64162;53.508;10.476;2023-11-22T02:13:31;4.63;;;2.30;;
75584;SDS011;64162;53.508;10.476;2023-11-22T02:15:58;4.65;;;2.33;;
75584;SDS011;64162;53.508;10.476;2023-11-22T02:18:25;4.45;;;2.38;;
75584;SDS011;64162;53.508;10.476;2023-11-22T02:20:52;4.55;;;2.60;;
75584;SDS011;64162;53.508;10.476;2023-11-22T02:23:20;4.63;;;2.50;;
75584;SDS011;64162;53.508;10.476;2023-11-22T02:25:47;5.90;;;2.20;;
75584;SDS011;64162;53.508;10.476;2023-11-22T02:28:15;4.40;;;2.10;;
75584;SDS011;64162;53.508;10.476;2023-11-22T02:30:42;4.38;;;2.28;;
75584;SDS011;64162;53.508;10.476;2023-11-22T02:33:09;3.15;;;1.90;;
75584;SDS011;64162;53.508;10.476;2023-11-22T02:35:36;4.57;;;2.30;;
75584;SDS011;64162;53.508;10.476;2023-11-22T02:38:02;4.40;;;2.45;;
75584;SDS011;64162;53.508;10.476;2023-11-22T02:40:29;4.10;;;2.38;;
75584;SDS011;64162;53.508;10.476;2023-11-22T02:45:25;4.03;;;2.33;;
75584;SDS011;64162;53.508;10.476;2023-11-22T02:47:53;3.95;;;2.33;;
75584;SDS011;64162;53.508;10.476;2023-11-22T02:50:20;3.92;;;2.10;;
75584;SDS011;64162;53.508;10.476;2023-11-22T02:52:47;3.78;;;2.30;;
75584;SDS011;64162;53.508;10.476;2023-11-22T02:55:13;3.90;;;2.28;;
75584;SDS011;64162;53.508;10.476;2023-11-22T02:57:41;3.65;;;1.90;;
75584;SDS011;64162;53.508;10.476;2023-11-22T03:02:35;4.68;;;2.15;;
75584;SDS011;64162;53.508;10.476;2023-11-22T03:05:03;3.35;;;2.17;;
75584;SDS011;64162;53.508;10.476;2023-11-22T03:07:30;4.72;;;2.28;;
75584;SDS011;64162;53.508;10.476;2023-11-22T03:09:57;5.25;;;1.85;;
75584;SDS011;64162;53.508;10.476;2023-11-22T03:12:26;3.08;;;2.00;;
75584;SDS011;64162;53.508;10.476;2023-11-22T03:15:11;3.70;;;2.10;;
75584;SDS011;64162;53.508;10.476;2023-11-22T03:17:38;6.43;;;2.20;;
75584;SDS011;64162;53.508;10.476;2023-11-22T03:22:36;4.32;;;2.20;;
75584;SDS011;64162;53.508;10.476;2023-11-22T03:25:03;4.32;;;2.28;;
75584;SDS011;64162;53.508;10.476;2023-11-22T03:27:30;4.10;;;2.22;;
75584;SDS011;64162;53.508;10.476;2023-11-22T03:29:57;4.85;;;2.25;;
75584;SDS011;64162;53.508;10.476;2023-11-22T03:32:23;4.82;;;2.30;;
75584;SDS011;64162;53.508;10.476;2023-11-22T03:34:50;4.10;;;2.10;;
75584;SDS011;64162;53.508;10.476;2023-11-22T03:37:17;7.43;;;2.20;;
75584;SDS011;64162;53.508;10.476;2023-11-22T03:39:44;3.58;;;2.10;;
75584;SDS011;64162;53.508;10.476;2023-11-22T03:42:15;3.83;;;2.20;;
75584;SDS011;64162;53.508;10.476;2023-11-22T03:44:44;4.93;;;2.10;;
75584;SDS011;64162;53.508;10.476;2023-11-22T03:47:11;4.32;;;2.50;;
75584;SDS011;64162;53.508;10.476;2023-11-22T03:49:39;4.57;;;2.40;;
75584;SDS011;64162;53.508;10.476;2023-11-22T03:52:06;5.07;;;2.35;;
75584;SDS011;64162;53.508;10.476;2023-11-22T03:54:33;3.90;;;2.28;;
75584;SDS011;64162;53.508;10.476;2023-11-22T03:56:59;6.43;;;2.70;;
75584;SDS011;64162;53.508;10.476;2023-11-22T03:59:26;3.40;;;2.00;;
75584;SDS011;64162;53.508;10.476;2023-11-22T04:01:52;6.68;;;2.35;;
75584;SDS011;64162;53.508;10.476;2023-11-22T04:04:19;7.28;;;2.53;;
75584;SDS011;64162;53.508;10.476;2023-11-22T04:06:46;5.05;;;2.47;;
75584;SDS011;64162;53.508;10.476;2023-11-22T04:09:12;3.63;;;2.25;;
75584;SDS011;64162;53.508;10.476;2023-11-22T04:11:39;3.67;;;2.08;;
75584;SDS011;64162;53.508;10.476;2023-11-22T04:14:06;5.28;;;2.50;;
75584;SDS011;64162;53.508;10.476;2023-11-22T04:16:33;3.45;;;2.33;;
75584;SDS011;64162;53.508;10.476;2023-11-22T04:18:59;5.07;;;2.47;;
75584;SDS011;64162;53.508;10.476;2023-11-22T04:21:26;5.53;;;2.50;;
75584;SDS011;64162;53.508;10.476;2023-11-22T04:23:53;3.90;;;2.20;;
75584;SDS011;64162;53.508;10.476;2023-11-22T04:26:20;7.07;;;2.38;;
75584;SDS011;64162;53.508;10.476;2023-11-22T04:28:46;5.88;;;2.70;;
75584;SDS011;64162;53.508;10.476;2023-11-22T04:31:13;5.82;;;2.70;;
75584;SDS011;64162;53.508;10.476;2023-11-22T04:33:40;6.15;;;2.67;;
75584;SDS011;64162;53.508;10.476;2023-11-22T04:36:07;4.90;;;2.88;;
75584;SDS011;64162;53.508;10.476;2023-11-22T04:41:00;4.80;;;2.33;;
75584;SDS011;64162;53.508;10.476;2023-11-22T04:43:27;4.65;;;2.33;;
75584;SDS011;64162;53.508;10.476;2023-11-22T04:45:53;4.82;;;2.58;;
75584;SDS011;64162;53.508;10.476;2023-11-22T04:48:21;4.25;;;2.40;;
75584;SDS011;64162;53.508;10.476;2023-11-22T04:50:47;5.25;;;2.40;;
75584;SDS011;64162;53.508;10.476;2023-11-22T04:53:14;4.85;;;2.70;;
75584;SDS011;64162;53.508;10.476;2023-11-22T04:55:41;4.93;;;2.20;;
75584;SDS011;64162;53.508;10.476;2023-11-22T04:58:08;5.32;;;2.40;;
75584;SDS011;64162;53.508;10.476;2023-11-22T05:00:34;5.03;;;2.40;;
75584;SDS011;64162;53.508;10.476;2023-11-22T05:03:01;4.75;;;2.55;;
75584;SDS011;64162;53.508;10.476;2023-11-22T05:05:27;5.63;;;2.40;;
75584;SDS011;64162;53.508;10.476;2023-11-22T05:07:54;5.00;;;2.80;;
75584;SDS011;64162;53.508;10.476;2023-11-22T05:10:21;5.93;;;2.85;;
75584;SDS011;64162;53.508;10.476;2023-11-22T05:12:48;4.55;;;2.70;;
75584;SDS011;64162;53.508;10.476;2023-11-22T05:15:14;5.20;;;2.53;;
75584;SDS011;64162;53.508;10.476;2023-11-22T05:17:41;5.38;;;2.70;;
75584;SDS011;64162;53.508;10.476;2023-11-22T05:20:08;5.82;;;2.67;;
75584;SDS011;64162;53.508;10.476;2023-11-22T05:22:38;7.18;;;3.22;;
75584;SDS011;64162;53.508;10.476;2023-11-22T05:25:04;4.40;;;2.63;;
75584;SDS011;64162;53.508;10.476;2023-11-22T05:27:33;6.10;;;2.60;;
75584;SDS011;64162;53.508;10.476;2023-11-22T05:29:59;5.32;;;2.40;;
75584;SDS011;64162;53.508;10.476;2023-11-22T05:32:27;5.25;;;2.53;;
75584;SDS011;64162;53.508;10.476;2023-11-22T05:34:55;4.95;;;2.45;;
75584;SDS011;64162;53.508;10.476;2023-11-22T05:37:22;4.68;;;2.42;;
75584;SDS011;64162;53.508;10.476;2023-11-22T05:39:50;7.38;;;3.00;;
75584;SDS011;64162;53.508;10.476;2023-11-22T05:42:16;4.55;;;2.42;;
75584;SDS011;64162;53.508;10.476;2023-11-22T05:44:44;5.72;;;2.60;;
75584;SDS011;64162;53.508;10.476;2023-11-22T05:47:10;7.25;;;2.67;;
75584;SDS011;64162;53.508;10.476;2023-11-22T05:49:39;6.15;;;2.97;;
75584;SDS011;64162;53.508;10.476;2023-11-22T05:52:05;4.45;;;2.75;;
75584;SDS011;64162;53.508;10.476;2023-11-22T05:54:33;7.97;;;3.17;;
75584;SDS011;64162;53.508;10.476;2023-11-22T05:56:59;5.57;;;2.97;;
75584;SDS011;64162;53.508;10.476;2023-11-22T06:01:53;5.72;;;2.92;;
75584;SDS011;64162;53.508;10.476;2023-11-22T06:04:19;6.25;;;2.90;;
75584;SDS011;64162;53.508;10.476;2023-11-22T06:06:46;6.20;;;3.08;;
75584;SDS011;64162;53.508;10.476;2023-11-22T06:09:12;5.07;;;2.70;;
75584;SDS011;64162;53.508;10.476;2023-11-22T06:11:40;6.07;;;2.75;;
75584;SDS011;64162;53.508;10.476;2023-11-22T06:14:07;5.50;;;2.70;;
75584;SDS011;64162;53.508;10.476;2023-11-22T06:16:34;5.05;;;2.60;;
75584;SDS011;64162;53.508;10.476;2023-11-22T06:19:00;5.35;;;2.70;;
75584;SDS011;64162;53.508;10.476;2023-11-22T06:21:27;5.43;;;2.72;;
75584;SDS011;64162;53.508;10.476;2023-11-22T06:23:54;4.70;;;2.85;;
75584;SDS011;64162;53.508;10.476;2023-11-22T06:26:24;5.10;;;2.70;;
75584;SDS011;64162;53.508;10.476;2023-11-22T06:28:51;9.07;;;2.95;;
75584;SDS011;64162;53.508;10.476;2023-11-22T06:31:18;6.45;;;2.83;;
75584;SDS011;64162;53.508;10.476;2023-11-22T06:33:45;5.25;;;2.92;;
75584;SDS011;64162;53.508;10.476;2023-11-22T06:38:40;4.60;;;2.75;;
75584;SDS011;64162;53.508;10.476;2023-11-22T06:41:07;5.35;;;3.28;;
75584;SDS011;64162;53.508;10.476;2023-11-22T06:43:34;6.60;;;2.75;;
75584;SDS011;64162;53.508;10.476;2023-11-22T06:46:01;5.40;;;2.78;;
75584;SDS011;64162;53.508;10.476;2023-11-22T06:48:32;9.85;;;3.25;;
75584;SDS011;64162;53.508;10.476;2023-11-22T06:50:59;6.85;;;3.22;;
75584;SDS011;64162;53.508;10.476;2023-11-22T06:53:26;6.70;;;3.42;;
75584;SDS011;64162;53.508;10.476;2023-11-22T06:55:53;6.70;;;3.63;;
75584;SDS011;64162;53.508;10.476;2023-11-22T06:58:20;5.82;;;3.80;;
75584;SDS011;64162;53.508;10.476;2023-11-22T07:00:46;6.72;;;3.53;;
75584;SDS011;64162;53.508;10.476;2023-11-22T07:03:13;7.15;;;3.53;;
75584;SDS011;64162;53.508;10.476;2023-11-22T07:05:40;4.50;;;2.97;;
75584;SDS011;64162;53.508;10.476;2023-11-22T07:08:07;6.88;;;3.42;;
75584;SDS011;64162;53.508;10.476;2023-11-22T07:10:34;9.70;;;3.47;;
75584;SDS011;64162;53.508;10.476;2023-11-22T07:13:00;7.07;;;4.05;;
75584;SDS011;64162;53.508;10.476;2023-11-22T07:15:28;6.72;;;3.47;;
75584;SDS011;64162;53.508;10.476;2023-11-22T07:17:55;6.00;;;3.63;;
75584;SDS011;64162;53.508;10.476;2023-11-22T07:22:50;5.15;;;2.72;;
75584;SDS011;64162;53.508;10.476;2023-11-22T07:25:21;6.47;;;3.22;;
75584;SDS011;64162;53.508;10.476;2023-11-22T07:27:51;9.77;;;3.60;;
75584;SDS011;64162;53.508;10.476;2023-11-22T07:30:19;7.45;;;3.30;;
75584;SDS011;64162;53.508;10.476;2023-11-22T07:35:13;6.85;;;3.75;;
75584;SDS011;64162;53.508;10.476;2023-11-22T07:37:39;5.57;;;3.13;;
75584;SDS011;64162;53.508;10.476;2023-11-22T07:40:08;21.00;;;8.93;;
75584;SDS011;64162;53.508;10.476;2023-11-22T07:42:36;11.00;;;4.90;;
75584;SDS011;64162;53.508;10.476;2023-11-22T07:45:03;10.73;;;5.30;;
75584;SDS011;64162;53.508;10.476;2023-11-22T07:47:30;10.52;;;5.63;;
75584;SDS011;64162;53.508;10.476;2023-11-22T07:52:23;9.23;;;4.70;;
75584;SDS011;64162;53.508;10.476;2023-11-22T07:54:56;11.27;;;5.38;;
75584;SDS011;64162;53.508;10.476;2023-11-22T07:57:23;7.93;;;4.18;;
75584;SDS011;64162;53.508;10.476;2023-11-22T07:59:50;9.13;;;4.05;;
75584;SDS011;64162;53.508;10.476;2023-11-22T08:02:18;11.88;;;4.32;;
75584;SDS011;64162;53.508;10.476;2023-11-22T08:04:45;8.48;;;4.22;;
75584;SDS011;64162;53.508;10.476;2023-11-22T08:07:12;9.35;;;4.70;;
75584;SDS011;64162;53.508;10.476;2023-11-22T08:09:39;11.52;;;5.72;;
75584;SDS011;64162;53.508;10.476;2023-11-22T08:12:06;17.65;;;7.22;;
75584;SDS011;64162;53.508;10.476;2023-11-22T08:14:34;11.50;;;7.10;;
75584;SDS011;64162;53.508;10.476;2023-11-22T08:17:01;11.38;;;6.60;;
75584;SDS011;64162;53.508;10.476;2023-11-22T08:19:28;12.93;;;6.60;;
75584;SDS011;64162;53.508;10.476;2023-11-22T08:24:21;7.70;;;4.20;;
75584;SDS011;64162;53.508;10.476;2023-11-22T08:26:48;6.93;;;3.92;;
75584;SDS011;64162;53.508;10.476;2023-11-22T08:31:42;7.90;;;3.70;;
75584;SDS011;64162;53.508;10.476;2023-11-22T08:34:09;5.72;;;3.15;;
75584;SDS011;64162;53.508;10.476;2023-11-22T08:36:37;7.18;;;3.53;;
75584;SDS011;64162;53.508;10.476;2023-11-22T08:39:04;5.85;;;3.05;;
75584;SDS011;64162;53.508;10.476;2023-11-22T08:41:32;5.75;;;3.22;;
75584;SDS011;64162;53.508;10.476;2023-11-22T08:43:59;5.15;;;3.28;;
75584;SDS011;64162;53.508;10.476;2023-11-22T08:46:26;6.68;;;3.05;;
75584;SDS011;64162;53.508;10.476;2023-11-22T08:48:53;6.43;;;2.65;;
75584;SDS011;64162;53.508;10.476;2023-11-22T08:51:20;5.45;;;2.67;;
75584;SDS011;64162;53.508;10.476;2023-11-22T08:53:47;8.32;;;3.05;;
75584;SDS011;64162;53.508;10.476;2023-11-22T08:58:42;5.22;;;2.75;;
75584;SDS011;64162;53.508;10.476;2023-11-22T09:01:09;5.57;;;2.80;;
75584;SDS011;64162;53.508;10.476;2023-11-22T09:03:36;5.45;;;3.15;;
75584;SDS011;64162;53.508;10.476;2023-11-22T09:06:04;5.70;;;3.08;;
75584;SDS011;64162;53.508;10.476;2023-11-22T09:08:33;7.45;;;3.10;;
75584;SDS011;64162;53.508;10.476;2023-11-22T09:11:02;5.65;;;2.90;;
75584;SDS011;64162;53.508;10.476;2023-11-22T09:13:32;5.05;;;2.67;;
75584;SDS011;64162;53.508;10.476;2023-11-22T09:15:59;5.90;;;2.97;;
75584;SDS011;64162;53.508;10.476;2023-11-22T09:18:25;6.15;;;3.00;;
75584;SDS011;64162;53.508;10.476;2023-11-22T09:20:53;8.23;;;3.78;;
75584;SDS011;64162;53.508;10.476;2023-11-22T09:23:20;8.80;;;3.20;;
75584;SDS011;64162;53.508;10.476;2023-11-22T09:25:47;7.10;;;3.28;;
75584;SDS011;64162;53.508;10.476;2023-11-22T09:28:13;4.57;;;2.95;;
75584;SDS011;64162;53.508;10.476;2023-11-22T09:30:42;6.97;;;4.38;;
75584;SDS011;64162;53.508;10.476;2023-11-22T09:33:13;6.28;;;3.33;;
75584;SDS011;64162;53.508;10.476;2023-11-22T09:35:42;5.28;;;3.25;;
75584;SDS011;64162;53.508;10.476;2023-11-22T09:38:13;5.28;;;3.13;;
75584;SDS011;64162;53.508;10.476;2023-11-22T09:40:42;6.25;;;3.22;;
75584;SDS011;64162;53.508;10.476;2023-11-22T09:43:09;6.88;;;3.38;;
75584;SDS011;64162;53.508;10.476;2023-11-22T09:45:36;7.13;;;3.20;;
75584;SDS011;64162;53.508;10.476;2023-11-22T09:48:16;5.57;;;3.10;;
75584;SDS011;64162;53.508;10.476;2023-11-22T09:50:49;6.32;;;3.72;;
75584;SDS011;64162;53.508;10.476;2023-11-22T09:53:22;7.60;;;3.70;;
75584;SDS011;64162;53.508;10.476;2023-11-22T09:55:59;7.38;;;3.70;;
75584;SDS011;64162;53.508;10.476;2023-11-22T09:58:30;7.35;;;3.65;;
75584;SDS011;64162;53.508;10.476;2023-11-22T10:01:00;8.13;;;4.43;;
75584;SDS011;64162;53.508;10.476;2023-11-22T10:03:28;6.57;;;3.95;;
75584;SDS011;64162;53.508;10.476;2023-11-22T10:05:56;7.15;;;5.05;;
75584;SDS011;64162;53.508;10.476;2023-11-22T10:08:25;8.73;;;4.75;;
75584;SDS011;64162;53.508;10.476;2023-11-22T10:10:53;7.03;;;3.50;;
75584;SDS011;64162;53.508;10.476;2023-11-22T10:13:21;6.18;;;3.67;;
75584;SDS011;64162;53.508;10.476;2023-11-22T10:15:49;7.20;;;4.72;;
75584;SDS011;64162;53.508;10.476;2023-11-22T10:18:16;9.55;;;5.75;;
75584;SDS011;64162;53.508;10.476;2023-11-22T10:20:44;9.85;;;4.05;;
75584;SDS011;64162;53.508;10.476;2023-11-22T10:23:16;5.85;;;4.10;;
75584;SDS011;64162;53.508;10.476;2023-11-22T10:28:18;6.88;;;3.92;;
75584;SDS011;64162;53.508;10.476;2023-11-22T10:30:52;5.93;;;3.55;;
75584;SDS011;64162;53.508;10.476;2023-11-22T10:33:19;6.10;;;3.03;;
75584;SDS011;64162;53.508;10.476;2023-11-22T10:35:49;5.57;;;3.10;;
75584;SDS011;64162;53.508;10.476;2023-11-22T10:38:20;4.32;;;2.50;;
75584;SDS011;64162;53.508;10.476;2023-11-22T10:40:47;5.47;;;3.05;;
75584;SDS011;64162;53.508;10.476;2023-11-22T10:43:15;5.00;;;2.72;;
75584;SDS011;64162;53.508;10.476;2023-11-22T10:45:43;5.28;;;3.38;;
75584;SDS011;64162;53.508;10.476;2023-11-22T10:48:15;5.18;;;3.10;;
75584;SDS011;64162;53.508;10.476;2023-11-22T10:50:43;6.72;;;2.95;;
75584;SDS011;64162;53.508;10.476;2023-11-22T10:53:19;6.55;;;3.10;;
75584;SDS011;64162;53.508;10.476;2023-11-22T10:55:48;3.47;;;2.45;;
75584;SDS011;64162;53.508;10.476;2023-11-22T10:58:17;4.90;;;2.63;;
75584;SDS011;64162;53.508;10.476;2023-11-22T11:00:46;5.60;;;2.95;;
75584;SDS011;64162;53.508;10.476;2023-11-22T11:03:20;4.45;;;2.28;;
75584;SDS011;64162;53.508;10.476;2023-11-22T11:05:56;6.70;;;2.75;;
75584;SDS011;64162;53.508;10.476;2023-11-22T11:08:25;8.15;;;2.75;;
75584;SDS011;64162;53.508;10.476;2023-11-22T11:10:53;4.78;;;2.72;;
75584;SDS011;64162;53.508;10.476;2023-11-22T11:13:23;7.22;;;2.70;;
75584;SDS011;64162;53.508;10.476;2023-11-22T11:15:53;4.55;;;2.35;;
75584;SDS011;64162;53.508;10.476;2023-11-22T11:18:20;4.30;;;2.40;;
75584;SDS011;64162;53.508;10.476;2023-11-22T11:20:51;6.82;;;2.53;;
75584;SDS011;64162;53.508;10.476;2023-11-22T11:23:20;5.68;;;2.50;;
75584;SDS011;64162;53.508;10.476;2023-11-22T11:25:55;7.97;;;2.58;;
75584;SDS011;64162;53.508;10.476;2023-11-22T11:28:23;2.75;;;1.75;;
75584;SDS011;64162;53.508;10.476;2023-11-22T11:30:53;3.72;;;2.15;;
75584;SDS011;64162;53.508;10.476;2023-11-22T11:33:27;6.18;;;2.53;;
75584;SDS011;64162;53.508;10.476;2023-11-22T11:36:00;3.55;;;2.33;;
75584;SDS011;64162;53.508;10.476;2023-11-22T11:38:30;3.30;;;2.28;;
75584;SDS011;64162;53.508;10.476;2023-11-22T11:41:10;5.88;;;2.83;;
75584;SDS011;64162;53.508;10.476;2023-11-22T11:43:44;6.88;;;2.70;;
75584;SDS011;64162;53.508;10.476;2023-11-22T11:46:13;5.03;;;2.20;;
75584;SDS011;64162;53.508;10.476;2023-11-22T11:48:44;4.55;;;2.40;;
75584;SDS011;64162;53.508;10.476;2023-11-22T11:51:14;4.65;;;2.50;;
75584;SDS011;64162;53.508;10.476;2023-11-22T11:53:42;4.88;;;2.50;;
75584;SDS011;64162;53.508;10.476;2023-11-22T11:56:09;5.85;;;2.90;;
75584;SDS011;64162;53.508;10.476;2023-11-22T11:58:36;4.22;;;2.20;;
75584;SDS011;64162;53.508;10.476;2023-11-22T12:01:07;3.17;;;2.20;;
75584;SDS011;64162;53.508;10.476;2023-11-22T12:03:35;4.25;;;2.42;;
75584;SDS011;64162;53.508;10.476;2023-11-22T12:06:02;6.32;;;2.40;;
75584;SDS011;64162;53.508;10.476;2023-11-22T12:08:29;5.05;;;2.33;;
75584;SDS011;64162;53.508;10.476;2023-11-22T12:10:56;3.92;;;2.28;;
75584;SDS011;64162;53.508;10.476;2023-11-22T12:13:25;4.13;;;2.30;;
75584;SDS011;64162;53.508;10.476;2023-11-22T12:15:52;2.80;;;2.10;;
75584;SDS011;64162;53.508;10.476;2023-11-22T12:18:22;5.32;;;3.00;;
75584;SDS011;64162;53.508;10.476;2023-11-22T12:20:56;5.30;;;2.60;;
75584;SDS011;64162;53.508;10.476;2023-11-22T12:23:27;3.88;;;2.53;;
75584;SDS011;64162;53.508;10.476;2023-11-22T12:25:57;4.20;;;2.40;;
75584;SDS011;64162;53.508;10.476;2023-11-22T12:28:26;3.50;;;2.08;;
75584;SDS011;64162;53.508;10.476;2023-11-22T12:30:53;3.17;;;2.20;;
75584;SDS011;64162;53.508;10.476;2023-11-22T12:33:20;4.40;;;2.55;;
75584;SDS011;64162;53.508;10.476;2023-11-22T12:35:47;4.30;;;2.47;;
75584;SDS011;64162;53.508;10.476;2023-11-22T12:38:15;5.78;;;2.58;;
75584;SDS011;64162;53.508;10.476;2023-11-22T12:40:43;3.72;;;2.20;;
75584;SDS011;64162;53.508;10.476;2023-11-22T12:43:13;4.28;;;2.05;;
75584;SDS011;64162;53.508;10.476;2023-11-22T12:45:42;4.72;;;2.67;;
75584;SDS011;64162;53.508;10.476;2023-11-22T12:48:24;6.15;;;2.67;;
75584;SDS011;64162;53.508;10.476;2023-11-22T12:50:52;3.35;;;2.33;;
75584;SDS011;64162;53.508;10.476;2023-11-22T12:53:19;5.22;;;2.50;;
75584;SDS011;64162;53.508;10.476;2023-11-22T12:55:50;2.90;;;2.00;;
75584;SDS011;64162;53.508;10.476;2023-11-22T12:58:18;4.22;;;2.50;;
75584;SDS011;64162;53.508;10.476;2023-11-22T13:00:46;3.75;;;2.10;;
75584;SDS011;64162;53.508;10.476;2023-11-22T13:03:14;3.70;;;2.25;;
75584;SDS011;64162;53.508;10.476;2023-11-22T13:05:41;3.60;;;2.40;;
75584;SDS011;64162;53.508;10.476;2023-11-22T13:08:10;4.45;;;2.42;;
75584;SDS011;64162;53.508;10.476;2023-11-22T13:10:40;4.90;;;2.50;;
75584;SDS011;64162;53.508;10.476;2023-11-22T13:13:10;4.07;;;2.35;;
75584;SDS011;64162;53.508;10.476;2023-11-22T13:18:03;5.65;;;3.25;;
75584;SDS011;64162;53.508;10.476;2023-11-22T13:20:32;5.85;;;2.20;;
75584;SDS011;64162;53.508;10.476;2023-11-22T13:23:02;5.05;;;2.97;;
75584;SDS011;64162;53.508;10.476;2023-11-22T13:25:31;4.22;;;2.40;;
75584;SDS011;64162;53.508;10.476;2023-11-22T13:28:05;7.60;;;3.67;;
75584;SDS011;64162;53.508;10.476;2023-11-22T13:30:49;5.78;;;3.63;;
75584;SDS011;64162;53.508;10.476;2023-11-22T13:33:17;3.83;;;2.20;;
75584;SDS011;64162;53.508;10.476;2023-11-22T13:35:45;5.68;;;2.22;;
75584;SDS011;64162;53.508;10.476;2023-11-22T13:38:13;5.15;;;2.35;;
75584;SDS011;64162;53.508;10.476;2023-11-22T13:40:42;4.38;;;2.50;;
75584;SDS011;64162;53.508;10.476;2023-11-22T13:43:14;10.07;;;3.15;;
75584;SDS011;64162;53.508;10.476;2023-11-22T13:48:07;5.50;;;2.70;;
75584;SDS011;64162;53.508;10.476;2023-11-22T13:50:35;3.55;;;2.03;;
75584;SDS011;64162;53.508;10.476;2023-11-22T13:55:30;8.88;;;5.10;;
75584;SDS011;64162;53.508;10.476;2023-11-22T13:57:58;6.18;;;3.42;;
75584;SDS011;64162;53.508;10.476;2023-11-22T14:00:26;3.88;;;2.15;;
75584;SDS011;64162;53.508;10.476;2023-11-22T14:02:58;4.57;;;2.13;;
75584;SDS011;64162;53.508;10.476;2023-11-22T14:05:33;4.22;;;2.50;;
75584;SDS011;64162;53.508;10.476;2023-11-22T14:08:02;2.80;;;1.92;;
75584;SDS011;64162;53.508;10.476;2023-11-22T14:10:30;5.15;;;3.08;;
75584;SDS011;64162;53.508;10.476;2023-11-22T14:15:27;3.42;;;1.90;;
75584;SDS011;64162;53.508;10.476;2023-11-22T14:17:57;5.32;;;2.53;;
75584;SDS011;64162;53.508;10.476;2023-11-22T14:20:23;3.03;;;1.95;;
75584;SDS011;64162;53.508;10.476;2023-11-22T14:22:53;4.32;;;2.38;;
75584;SDS011;64162;53.508;10.476;2023-11-22T14:27:47;2.15;;;1.65;;
75584;SDS011;64162;53.508;10.476;2023-11-22T14:30:21;3.45;;;1.70;;
75584;SDS011;64162;53.508;10.476;2023-11-22T14:32:47;3.22;;;1.50;;
75584;SDS011;64162;53.508;10.476;2023-11-22T14:35:16;2.63;;;1.95;;
75584;SDS011;64162;53.508;10.476;2023-11-22T14:37:44;3.67;;;1.80;;
75584;SDS011;64162;53.508;10.476;2023-11-22T14:40:11;3.65;;;2.22;;
75584;SDS011;64162;53.508;10.476;2023-11-22T14:42:41;2.60;;;1.73;;
75584;SDS011;64162;53.508;10.476;2023-11-22T14:45:08;4.55;;;2.17;;
75584;SDS011;64162;53.508;10.476;2023-11-22T14:47:37;4.57;;;2.30;;
75584;SDS011;64162;53.508;10.476;2023-11-22T14:50:06;4.30;;;2.00;;
75584;SDS011;64162;53.508;10.476;2023-11-22T14:52:36;3.53;;;1.83;;
75584;SDS011;64162;53.508;10.476;2023-11-22T14:55:03;3.25;;;1.90;;
75584;SDS011;64162;53.508;10.476;2023-11-22T14:57:31;5.18;;;1.60;;
75584;SDS011;64162;53.508;10.476;2023-11-22T14:59:58;3.30;;;1.80;;
75584;SDS011;64162;53.508;10.476;2023-11-22T15:02:25;2.63;;;1.80;;
75584;SDS011;64162;53.508;10.476;2023-11-22T15:04:52;1.15;;;0.93;;
75584;SDS011;64162;53.508;10.476;2023-11-22T15:09:46;3.63;;;1.88;;
75584;SDS011;64162;53.508;10.476;2023-11-22T15:12:12;2.50;;;1.65;;
75584;SDS011;64162;53.508;10.476;2023-11-22T15:14:40;3.17;;;1.77;;
75584;SDS011;64162;53.508;10.476;2023-11-22T15:17:06;3.35;;;2.00;;
75584;SDS011;64162;53.508;10.476;2023-11-22T15:19:33;3.47;;;1.73;;
75584;SDS011;64162;53.508;10.476;2023-11-22T15:22:01;3.55;;;1.88;;
75584;SDS011;64162;53.508;10.476;2023-11-22T15:24:29;3.88;;;2.25;;
75584;SDS011;64162;53.508;10.476;2023-11-22T15:26:57;3.92;;;2.00;;
75584;SDS011;64162;53.508;10.476;2023-11-22T15:29:24;4.05;;;2.10;;
75584;SDS011;64162;53.508;10.476;2023-11-22T15:31:50;3.38;;;1.80;;
75584;SDS011;64162;53.508;10.476;2023-11-22T15:34:18;2.25;;;1.83;;
75584;SDS011;64162;53.508;10.476;2023-11-22T15:36:45;4.55;;;2.30;;